Time;durP1;ratioP1;P1;durP2;ratioP2;P2;SDS_P1;SDS_P2;PMS_P1;PMS_P2;Temp;Humidity;BMP_temperature;BMP_pressure;BME280_temperature;BME280_humidity;BME280_pressure;Samples;Min_cycle;Max_cycle;Signal;HPM_P1;HPM_P2
2022/08/30 00:03:17;;;;;;;4.78;2.25;;;15.30;99.90;;;;;;5034907;28;20061;-73
2022/08/30 00:05:44;;;;;;;4.80;2.05;;;15.20;99.90;;;;;;5035607;28;20419;-73
2022/08/30 00:08:11;;;;;;;6.65;2.58;;;15.20;99.90;;;;;;5017962;28;20141;-74
2022/08/30 00:10:38;;;;;;;4.38;2.00;;;15.20;99.90;;;;;;5040258;28;20056;-74
2022/08/30 00:13:06;;;;;;;5.65;1.80;;;15.20;99.90;;;;;;5054753;28;20099;-73
2022/08/30 00:15:32;;;;;;;3.55;1.88;;;15.20;99.90;;;;;;5035008;28;20037;-73
2022/08/30 00:17:57;;;;;;;5.18;2.10;;;15.20;99.90;;;;;;5034809;28;20053;-73
2022/08/30 00:20:27;;;;;;;4.63;2.10;;;15.20;99.90;;;;;;5035219;28;20046;-73
2022/08/30 00:22:53;;;;;;;6.00;2.00;;;15.20;99.90;;;;;;5034884;28;20100;-73
2022/08/30 00:25:19;;;;;;;4.80;1.80;;;15.20;99.90;;;;;;5033913;28;20170;-73
2022/08/30 00:27:45;;;;;;;5.75;2.47;;;15.20;99.90;;;;;;5034215;28;20139;-73
2022/08/30 00:30:13;;;;;;;3.97;2.33;;;15.20;99.90;;;;;;5033979;28;20100;-73
2022/08/30 00:32:39;;;;;;;8.32;2.13;;;15.20;99.90;;;;;;5034979;28;20048;-73
2022/08/30 00:35:06;;;;;;;5.45;2.28;;;15.20;99.90;;;;;;5050983;28;20041;-73
2022/08/30 00:37:32;;;;;;;5.18;2.10;;;15.30;99.90;;;;;;5054833;28;20037;-73
2022/08/30 00:39:57;;;;;;;4.53;2.40;;;15.30;99.90;;;;;;5054560;28;20045;-73
2022/08/30 00:42:24;;;;;;;3.80;2.05;;;15.30;99.90;;;;;;5054609;28;20128;-74
2022/08/30 00:44:50;;;;;;;7.97;1.98;;;15.40;99.90;;;;;;5040646;28;20041;-74
2022/08/30 00:47:16;;;;;;;6.25;2.00;;;15.40;99.90;;;;;;5034959;28;20049;-73
2022/08/30 00:49:46;;;;;;;7.82;2.22;;;15.40;99.90;;;;;;5034721;28;20363;-74
2022/08/30 00:52:13;;;;;;;3.70;1.88;;;15.50;99.90;;;;;;5034600;28;20107;-73
2022/08/30 00:54:41;;;;;;;6.05;2.25;;;15.50;99.90;;;;;;5046633;28;20052;-73
2022/08/30 00:57:09;;;;;;;5.22;2.10;;;15.50;99.90;;;;;;5020419;28;20071;-73
2022/08/30 00:59:35;;;;;;;4.85;2.03;;;15.40;99.90;;;;;;5055216;28;20329;-74
2022/08/30 01:02:04;;;;;;;4.68;2.03;;;15.40;99.90;;;;;;5054522;28;20040;-74
2022/08/30 01:04:32;;;;;;;5.40;2.42;;;15.40;99.90;;;;;;5043232;28;20167;-73
2022/08/30 01:06:59;;;;;;;4.60;2.05;;;15.40;99.90;;;;;;5034528;28;20374;-73
2022/08/30 01:09:25;;;;;;;4.28;1.83;;;15.30;99.90;;;;;;5034801;28;20378;-74
2022/08/30 01:11:51;;;;;;;5.90;2.30;;;15.30;99.90;;;;;;5050299;28;20067;-74
2022/08/30 01:14:17;;;;;;;6.35;2.85;;;15.20;99.90;;;;;;5053685;28;20134;-73
2022/08/30 01:16:45;;;;;;;5.25;2.55;;;15.20;99.90;;;;;;5037086;28;20072;-74
2022/08/30 01:19:30;;;;;;;8.05;2.20;;;15.10;99.90;;;;;;5054286;28;20052;-74
2022/08/30 01:22:10;;;;;;;5.47;3.13;;;15.10;99.90;;;;;;5054628;28;20049;-74
2022/08/30 01:24:36;;;;;;;6.60;3.20;;;15.00;99.90;;;;;;5054249;28;20077;-74
2022/08/30 01:27:01;;;;;;;5.68;3.70;;;15.00;99.90;;;;;;5054098;28;20466;-73
2022/08/30 01:29:28;;;;;;;6.82;3.00;;;15.00;99.90;;;;;;5054910;28;20044;-73
2022/08/30 01:31:53;;;;;;;6.45;3.20;;;15.00;99.90;;;;;;5054389;28;20033;-73
2022/08/30 01:34:19;;;;;;;5.15;3.28;;;14.90;99.90;;;;;;5053744;28;20048;-73
2022/08/30 01:36:45;;;;;;;8.27;3.10;;;14.90;99.90;;;;;;5054134;28;20122;-73
2022/08/30 01:39:14;;;;;;;4.90;3.03;;;14.80;99.90;;;;;;5054777;28;20044;-73
2022/08/30 01:41:40;;;;;;;6.40;3.63;;;14.80;99.90;;;;;;5057729;28;20033;-73
2022/08/30 01:44:09;;;;;;;7.75;3.45;;;14.80;99.90;;;;;;5057256;28;20449;-74
2022/08/30 01:46:38;;;;;;;6.03;3.50;;;14.80;99.90;;;;;;5057667;28;20102;-73
2022/08/30 01:49:06;;;;;;;6.13;3.75;;;14.70;99.90;;;;;;5057522;28;20056;-73
2022/08/30 01:51:33;;;;;;;5.82;3.63;;;14.80;99.90;;;;;;5057893;28;20058;-73
2022/08/30 01:53:59;;;;;;;6.07;3.70;;;14.70;99.90;;;;;;5039482;28;20095;-74
2022/08/30 01:56:26;;;;;;;6.30;3.78;;;14.80;99.90;;;;;;5057221;28;20041;-73
2022/08/30 01:58:52;;;;;;;7.82;3.70;;;14.80;99.90;;;;;;5057642;28;20152;-73
2022/08/30 02:01:22;;;;;;;8.07;3.95;;;14.80;99.90;;;;;;5057259;28;20041;-74
2022/08/30 02:03:47;;;;;;;6.35;3.47;;;14.80;99.90;;;;;;5056772;28;20053;-74
2022/08/30 02:06:16;;;;;;;6.53;3.67;;;14.80;99.90;;;;;;5057156;28;20124;-73
2022/08/30 02:08:42;;;;;;;6.13;3.47;;;14.80;99.90;;;;;;5039691;28;20487;-73
2022/08/30 02:11:09;;;;;;;4.70;3.15;;;14.80;99.90;;;;;;5057518;28;20053;-73
2022/08/30 02:13:37;;;;;;;6.55;3.35;;;14.80;99.90;;;;;;5055349;28;20154;-73
2022/08/30 02:16:05;;;;;;;8.25;3.83;;;14.70;99.90;;;;;;5037133;28;20049;-73
2022/08/30 02:18:32;;;;;;;7.40;3.42;;;14.70;99.90;;;;;;5037023;28;20042;-73
2022/08/30 02:20:58;;;;;;;6.93;3.42;;;14.90;99.90;;;;;;5037396;28;20374;-74
2022/08/30 02:23:23;;;;;;;7.85;3.20;;;14.60;99.90;;;;;;5037094;28;20042;-73
2022/08/30 02:25:49;;;;;;;5.75;3.58;;;14.60;99.90;;;;;;5056619;28;20419;-73
2022/08/30 02:28:14;;;;;;;9.07;3.90;;;14.70;99.90;;;;;;5056739;28;20036;-73
2022/08/30 02:30:41;;;;;;;5.72;3.55;;;14.70;99.90;;;;;;5057001;28;20076;-73
2022/08/30 02:33:07;;;;;;;6.88;3.17;;;14.60;99.90;;;;;;5056555;28;20445;-73
2022/08/30 02:35:32;;;;;;;8.70;3.30;;;14.80;99.90;;;;;;5039017;28;20049;-73
2022/08/30 02:37:58;;;;;;;9.23;4.05;;;14.60;99.90;;;;;;5037029;28;20041;-73
2022/08/30 02:40:23;;;;;;;7.43;3.20;;;14.60;99.90;;;;;;5036772;28;20502;-73
2022/08/30 02:42:50;;;;;;;5.70;2.85;;;14.60;99.90;;;;;;5018927;28;20060;-74
2022/08/30 02:45:16;;;;;;;4.30;3.08;;;14.60;99.90;;;;;;5050928;28;20045;-73
2022/08/30 02:47:42;;;;;;;4.65;3.17;;;14.50;99.90;;;;;;5038795;28;20466;-74
2022/08/30 02:50:08;;;;;;;6.07;2.83;;;14.50;99.90;;;;;;5055158;28;20492;-73
2022/08/30 02:52:37;;;;;;;5.55;3.30;;;14.50;99.90;;;;;;5056493;28;20053;-73
2022/08/30 02:55:04;;;;;;;6.60;2.90;;;14.50;99.90;;;;;;5043117;28;20046;-73
2022/08/30 02:57:30;;;;;;;5.75;2.95;;;14.40;99.90;;;;;;5018648;28;20132;-73
2022/08/30 02:59:56;;;;;;;11.77;3.55;;;14.40;99.90;;;;;;5036249;28;20124;-73
2022/08/30 03:02:22;;;;;;;7.68;3.20;;;14.30;99.90;;;;;;5036654;28;20081;-73
2022/08/30 03:04:48;;;;;;;9.57;3.38;;;14.30;99.90;;;;;;5046216;28;20453;-73
2022/08/30 03:07:16;;;;;;;6.05;3.10;;;14.30;99.90;;;;;;5056102;28;20056;-73
2022/08/30 03:09:41;;;;;;;5.40;3.13;;;14.30;99.90;;;;;;5056047;28;20103;-73
2022/08/30 03:12:11;;;;;;;7.25;2.90;;;14.20;99.90;;;;;;5038131;28;20068;-73
2022/08/30 03:14:38;;;;;;;6.20;2.78;;;14.20;99.90;;;;;;5029754;28;20085;-73
2022/08/30 03:17:06;;;;;;;6.60;3.13;;;14.10;99.90;;;;;;5035442;28;20049;-73
2022/08/30 03:19:32;;;;;;;6.60;3.08;;;14.20;99.90;;;;;;5036034;28;20041;-73
2022/08/30 03:21:58;;;;;;;5.10;3.10;;;14.20;99.90;;;;;;5035970;28;20052;-73
2022/08/30 03:24:24;;;;;;;7.15;2.50;;;14.10;99.90;;;;;;5042339;28;20049;-73
2022/08/30 03:26:50;;;;;;;7.30;3.10;;;14.10;99.90;;;;;;5056121;28;20377;-73
2022/08/30 03:29:16;;;;;;;6.22;2.75;;;14.00;99.90;;;;;;5055620;28;20045;-73
2022/08/30 03:31:42;;;;;;;6.43;2.92;;;14.00;99.90;;;;;;5038479;28;20059;-73
2022/08/30 03:34:09;;;;;;;6.85;3.00;;;13.90;99.90;;;;;;5050853;28;20048;-73
2022/08/30 03:36:37;;;;;;;8.43;3.15;;;13.90;99.90;;;;;;5035855;28;20183;-72
2022/08/30 03:39:06;;;;;;;4.05;2.50;;;13.80;99.90;;;;;;5035542;28;20073;-74
2022/08/30 03:41:32;;;;;;;5.88;3.83;;;13.80;99.90;;;;;;5036154;28;20344;-73
2022/08/30 03:43:59;;;;;;;4.75;3.05;;;13.80;99.90;;;;;;5037889;28;20136;-73
2022/08/30 03:46:25;;;;;;;6.15;3.33;;;13.70;99.90;;;;;;5055388;28;20441;-73
2022/08/30 03:48:54;;;;;;;6.63;3.45;;;13.70;99.90;;;;;;5055619;28;20441;-74
2022/08/30 03:51:23;;;;;;;6.82;3.63;;;13.60;99.90;;;;;;5055535;28;20500;-73
2022/08/30 03:53:49;;;;;;;8.15;3.25;;;13.50;99.90;;;;;;5053496;28;20440;-73
2022/08/30 03:56:16;;;;;;;5.43;2.92;;;13.60;99.90;;;;;;5035217;28;20084;-73
2022/08/30 03:58:43;;;;;;;7.95;3.70;;;13.40;99.90;;;;;;5036127;28;20080;-73
2022/08/30 04:01:08;;;;;;;5.93;3.70;;;13.40;99.90;;;;;;4998512;28;20053;-74
2022/08/30 04:03:34;;;;;;;4.88;3.13;;;13.40;99.90;;;;;;5035575;28;20049;-73
2022/08/30 04:06:00;;;;;;;5.50;3.28;;;13.30;99.90;;;;;;5047928;28;20085;-73
2022/08/30 04:08:26;;;;;;;7.15;3.55;;;13.30;99.90;;;;;;5042949;28;20049;-72
2022/08/30 04:10:54;;;;;;;4.63;2.85;;;13.20;99.90;;;;;;5017411;28;20057;-71
2022/08/30 04:13:21;;;;;;;6.10;3.45;;;13.30;99.90;;;;;;5034580;28;20503;-73
2022/08/30 04:15:47;;;;;;;6.47;3.50;;;13.10;99.90;;;;;;5017231;28;20060;-74
2022/08/30 04:18:12;;;;;;;6.70;3.40;;;13.10;99.90;;;;;;5034254;28;20365;-73
2022/08/30 04:20:38;;;;;;;6.55;3.63;;;13.10;99.90;;;;;;5034978;28;20492;-73
2022/08/30 04:23:08;;;;;;;5.68;3.70;;;13.00;99.90;;;;;;5033821;28;20476;-73
2022/08/30 04:25:34;;;;;;;4.95;3.40;;;13.00;99.90;;;;;;5035087;28;20049;-72
2022/08/30 04:28:00;;;;;;;7.50;3.60;;;13.00;99.90;;;;;;5034894;28;20180;-72
2022/08/30 04:30:26;;;;;;;5.18;3.40;;;12.90;99.90;;;;;;5017985;28;20465;-73
2022/08/30 04:32:51;;;;;;;5.40;3.50;;;12.90;99.90;;;;;;5034179;28;20041;-73
2022/08/30 04:35:17;;;;;;;5.65;3.67;;;12.80;99.90;;;;;;5017540;28;20053;-73
2022/08/30 04:37:43;;;;;;;5.97;3.47;;;12.80;99.90;;;;;;5034532;28;20132;-72
2022/08/30 04:40:09;;;;;;;6.20;4.00;;;12.80;99.90;;;;;;5026761;28;20045;-73
2022/08/30 04:42:35;;;;;;;6.45;3.47;;;12.70;99.90;;;;;;5033121;28;20033;-73
2022/08/30 04:45:04;;;;;;;8.77;3.75;;;12.80;99.90;;;;;;5033838;28;20046;-74
2022/08/30 04:47:30;;;;;;;8.23;3.80;;;12.70;99.90;;;;;;5017821;28;20050;-73
2022/08/30 04:49:56;;;;;;;4.40;2.90;;;12.60;99.90;;;;;;5014680;28;20513;-74
2022/08/30 04:52:21;;;;;;;8.13;3.67;;;12.60;99.90;;;;;;5021840;28;20529;-71
2022/08/30 04:54:47;;;;;;;7.40;3.45;;;12.50;99.90;;;;;;5034368;28;20140;-71
2022/08/30 04:57:13;;;;;;;7.47;3.70;;;12.50;99.90;;;;;;5033594;28;20503;-71
2022/08/30 04:59:38;;;;;;;5.70;3.38;;;12.50;99.90;;;;;;5034252;28;20045;-71
2022/08/30 05:02:04;;;;;;;6.80;3.10;;;12.50;99.90;;;;;;5016700;28;20049;-70
2022/08/30 05:04:30;;;;;;;5.28;3.30;;;12.50;99.90;;;;;;5034467;28;20378;-69
2022/08/30 05:06:56;;;;;;;5.60;3.80;;;12.50;99.90;;;;;;5033887;28;20041;-73
2022/08/30 05:09:21;;;;;;;6.03;3.75;;;12.50;99.90;;;;;;5034443;28;20460;-72
2022/08/30 05:11:47;;;;;;;7.10;4.18;;;12.50;99.90;;;;;;5046513;28;20053;-73
2022/08/30 05:14:13;;;;;;;5.28;4.00;;;12.50;99.90;;;;;;5036123;28;20134;-73
2022/08/30 05:16:40;;;;;;;8.18;4.13;;;12.50;99.90;;;;;;5037868;28;20083;-75
2022/08/30 05:19:07;;;;;;;5.30;3.88;;;12.50;99.90;;;;;;5038057;28;20052;-74
2022/08/30 05:21:32;;;;;;;6.32;3.97;;;12.60;99.90;;;;;;5037730;28;20052;-74
2022/08/30 05:23:59;;;;;;;6.20;3.78;;;12.60;99.90;;;;;;5058243;28;20472;-73
2022/08/30 05:26:31;;;;;;;6.88;4.13;;;12.60;99.90;;;;;;5058262;28;20330;-73
2022/08/30 05:28:57;;;;;;;5.47;2.78;;;12.60;99.90;;;;;;5057955;28;20099;-74
2022/08/30 05:31:32;;;;;;;4.85;3.70;;;12.60;99.90;;;;;;5023998;28;20052;-73
2022/08/30 05:33:58;;;;;;;7.18;4.28;;;12.60;99.90;;;;;;5037804;28;20115;-73
2022/08/30 05:36:28;;;;;;;9.95;4.40;;;12.60;99.90;;;;;;5037626;28;20051;-73
2022/08/30 05:38:55;;;;;;;5.30;3.42;;;12.60;99.90;;;;;;5037891;28;20468;-74
2022/08/30 05:41:22;;;;;;;10.90;4.03;;;12.70;99.90;;;;;;5045649;28;20518;-74
2022/08/30 05:43:50;;;;;;;6.80;4.10;;;12.70;99.90;;;;;;5057302;28;20080;-74
2022/08/30 05:46:18;;;;;;;4.50;3.35;;;12.70;99.90;;;;;;5057707;28;20135;-74
2022/08/30 05:48:44;;;;;;;6.60;4.10;;;12.70;99.90;;;;;;5056821;28;20076;-73
2022/08/30 05:51:13;;;;;;;5.75;3.88;;;12.60;99.90;;;;;;5020172;28;20120;-73
2022/08/30 05:53:40;;;;;;;5.10;3.03;;;12.80;99.90;;;;;;5038331;28;20042;-73
2022/08/30 05:56:09;;;;;;;6.20;4.10;;;12.90;99.90;;;;;;5020630;28;20187;-75
2022/08/30 05:58:35;;;;;;;7.13;3.72;;;12.90;99.90;;;;;;5020115;28;20046;-73
2022/08/30 06:01:01;;;;;;;7.20;4.10;;;13.00;99.90;;;;;;5038127;28;20055;-74
2022/08/30 06:03:27;;;;;;;6.13;3.03;;;13.70;99.90;;;;;;5057718;28;20397;-74
2022/08/30 06:05:53;;;;;;;5.72;3.47;;;14.90;99.90;;;;;;5057678;28;20059;-74
2022/08/30 06:08:18;;;;;;;5.20;2.95;;;16.00;99.90;;;;;;5057288;28;20579;-73
2022/08/30 06:10:44;;;;;;;6.00;2.38;;;17.40;99.90;;;;;;5023457;28;20458;-73
2022/08/30 06:13:10;;;;;;;4.80;2.50;;;18.50;99.90;;;;;;5037102;28;20057;-74
2022/08/30 06:15:36;;;;;;;5.07;2.70;;;19.60;99.90;;;;;;5037395;28;20128;-74
2022/08/30 06:18:02;;;;;;;8.07;2.67;;;20.60;99.90;;;;;;5036978;28;20034;-74
2022/08/30 06:20:28;;;;;;;6.78;2.05;;;21.40;99.90;;;;;;5036107;28;20052;-74
2022/08/30 06:22:53;;;;;;;4.35;2.05;;;22.00;99.90;;;;;;5037438;28;20037;-74
2022/08/30 06:25:19;;;;;;;3.88;2.20;;;22.70;99.90;;;;;;5037093;28;20045;-74
2022/08/30 06:27:44;;;;;;;3.25;1.80;;;23.40;99.90;;;;;;5037248;28;20069;-74
2022/08/30 06:30:10;;;;;;;5.78;1.67;;;23.80;99.90;;;;;;5036401;28;20124;-74
2022/08/30 06:32:38;;;;;;;3.17;1.58;;;24.30;99.90;;;;;;5035920;28;20051;-74
2022/08/30 06:35:06;;;;;;;2.72;1.40;;;24.70;99.90;;;;;;5036348;28;20076;-75
2022/08/30 06:37:32;;;;;;;3.42;1.30;;;25.30;99.90;;;;;;5036676;28;20056;-74
2022/08/30 06:39:59;;;;;;;3.38;1.50;;;25.50;98.80;;;;;;5036979;28;20046;-75
2022/08/30 06:42:30;;;;;;;5.30;1.60;;;25.80;98.70;;;;;;5035791;28;20049;-75
2022/08/30 06:45:00;;;;;;;4.15;1.67;;;26.10;97.80;;;;;;5036422;28;20050;-72
2022/08/30 06:47:28;;;;;;;4.55;1.52;;;25.60;96.80;;;;;;5036634;28;20045;-72
2022/08/30 06:49:53;;;;;;;6.18;1.75;;;24.50;96.90;;;;;;5036836;28;20045;-73
2022/08/30 06:52:19;;;;;;;4.07;1.60;;;23.30;97.40;;;;;;5036152;28;20438;-74
2022/08/30 06:54:45;;;;;;;4.65;2.00;;;22.00;98.40;;;;;;5036464;28;20127;-74
2022/08/30 06:57:11;;;;;;;5.97;1.80;;;21.40;99.30;;;;;;5018848;28;20057;-75
2022/08/30 06:59:38;;;;;;;4.20;1.73;;;20.80;99.90;;;;;;5036442;28;20061;-75
2022/08/30 07:02:04;;;;;;;5.43;2.10;;;20.20;99.90;;;;;;5018685;28;20053;-74
2022/08/30 07:04:30;;;;;;;6.80;1.80;;;19.90;99.90;;;;;;5036208;28;20057;-74
2022/08/30 07:06:55;;;;;;;6.90;2.08;;;19.70;99.90;;;;;;5036312;28;20103;-73
2022/08/30 07:09:21;;;;;;;3.92;1.90;;;19.50;99.90;;;;;;5036041;28;20119;-73
2022/08/30 07:11:46;;;;;;;6.93;1.63;;;19.20;99.90;;;;;;5043177;28;20057;-75
2022/08/30 07:14:12;;;;;;;5.53;1.75;;;18.90;99.90;;;;;;5036409;28;20049;-74
2022/08/30 07:16:38;;;;;;;3.78;1.85;;;18.80;99.90;;;;;;5018981;28;20053;-74
2022/08/30 07:19:04;;;;;;;2.67;1.63;;;18.80;99.90;;;;;;5036268;28;20037;-74
2022/08/30 07:21:38;;;;;;;3.65;1.55;;;18.70;99.90;;;;;;5038988;28;20102;-74
2022/08/30 07:24:06;;;;;;;5.75;1.60;;;18.70;99.90;;;;;;5018111;28;20045;-74
2022/08/30 07:26:45;;;;;;;4.65;1.40;;;18.60;99.90;;;;;;5035817;28;20132;-74
2022/08/30 07:29:11;;;;;;;4.47;1.50;;;18.50;99.90;;;;;;5035312;28;20469;-75
2022/08/30 07:31:37;;;;;;;2.42;1.40;;;18.40;99.90;;;;;;5050611;28;20077;-74
2022/08/30 07:34:05;;;;;;;3.08;1.42;;;18.50;99.90;;;;;;5055643;28;20060;-74
2022/08/30 07:36:30;;;;;;;6.28;1.40;;;18.50;99.90;;;;;;5054998;28;20045;-74
2022/08/30 07:38:56;;;;;;;2.25;1.10;;;18.40;99.90;;;;;;5055638;28;20052;-73
2022/08/30 07:41:29;;;;;;;3.67;0.95;;;18.40;99.90;;;;;;5024696;28;20184;-73
2022/08/30 07:43:55;;;;;;;4.97;1.58;;;18.40;99.90;;;;;;5035604;28;20446;-74
2022/08/30 07:46:21;;;;;;;2.35;1.15;;;18.40;99.90;;;;;;5035841;28;20135;-74
2022/08/30 07:48:47;;;;;;;2.47;1.20;;;18.40;99.90;;;;;;5018132;28;20053;-73
2022/08/30 07:51:16;;;;;;;4.32;1.20;;;18.40;99.90;;;;;;5046657;28;20041;-74
2022/08/30 07:53:42;;;;;;;3.03;1.15;;;18.40;99.90;;;;;;5055257;28;20071;-74
2022/08/30 07:56:08;;;;;;;3.05;1.40;;;18.50;99.90;;;;;;5055102;28;20128;-74
2022/08/30 07:58:36;;;;;;;2.92;1.30;;;18.50;99.90;;;;;;5055316;28;20126;-74
2022/08/30 08:01:03;;;;;;;2.85;1.10;;;18.50;99.90;;;;;;5045069;28;20470;-73
2022/08/30 08:03:29;;;;;;;2.67;1.20;;;18.60;99.90;;;;;;5035639;28;20057;-74
2022/08/30 08:05:55;;;;;;;3.78;1.50;;;18.70;99.90;;;;;;5035415;28;20454;-74
2022/08/30 08:08:22;;;;;;;3.30;1.30;;;18.70;99.90;;;;;;5035077;28;20061;-73
2022/08/30 08:10:48;;;;;;;5.45;1.17;;;18.70;99.90;;;;;;5025305;28;20072;-73
2022/08/30 08:13:14;;;;;;;4.10;1.17;;;18.70;99.90;;;;;;5055038;28;20055;-74
2022/08/30 08:15:39;;;;;;;2.42;1.25;;;18.70;99.90;;;;;;5054993;28;20045;-73
2022/08/30 08:18:05;;;;;;;4.90;1.60;;;18.70;99.90;;;;;;5055368;28;20521;-74
2022/08/30 08:20:33;;;;;;;4.43;1.45;;;18.80;99.90;;;;;;5049456;28;20041;-74
2022/08/30 08:22:59;;;;;;;5.05;1.20;;;18.80;99.90;;;;;;5035242;28;20060;-75
2022/08/30 08:25:25;;;;;;;3.55;1.17;;;18.90;99.90;;;;;;5035470;28;20049;-75
2022/08/30 08:27:51;;;;;;;2.53;1.10;;;19.00;99.90;;;;;;5034894;28;20049;-74
2022/08/30 08:30:21;;;;;;;4.88;1.27;;;19.40;99.90;;;;;;5037445;28;20108;-74
2022/08/30 08:32:48;;;;;;;4.35;1.20;;;20.30;99.50;;;;;;5054800;28;20058;-75
2022/08/30 08:35:16;;;;;;;6.07;1.20;;;21.40;98.80;;;;;;5054815;28;20123;-75
2022/08/30 08:37:42;;;;;;;3.05;1.10;;;22.20;97.00;;;;;;5054902;28;20433;-75
2022/08/30 08:40:11;;;;;;;2.88;1.00;;;22.70;95.90;;;;;;5052805;28;20048;-74
2022/08/30 08:43:09;;;;;;;2.67;1.00;;;22.80;95.60;;;;;;5034525;28;20472;-74
2022/08/30 08:45:45;;;;;;;4.53;1.10;;;22.90;94.70;;;;;;5034574;28;20048;-75
2022/08/30 08:48:19;;;;;;;2.85;1.02;;;23.10;95.50;;;;;;5036229;28;20041;-74
2022/08/30 08:53:34;;;;;;;4.10;0.90;;;22.70;94.90;;;;;;5058312;28;20056;-75
2022/08/30 08:56:02;;;;;;;2.85;1.02;;;22.70;95.20;;;;;;5058345;28;20056;-73
2022/08/30 08:58:31;;;;;;;2.10;0.90;;;22.70;95.30;;;;;;5040598;28;20071;-74
2022/08/30 09:00:57;;;;;;;2.72;0.90;;;22.50;95.20;;;;;;5050846;28;20092;-74
2022/08/30 09:03:26;;;;;;;2.65;1.13;;;22.10;95.30;;;;;;5021838;28;20045;-74
2022/08/30 09:05:53;;;;;;;4.88;1.00;;;21.90;95.70;;;;;;5038755;28;20052;-74
2022/08/30 09:08:20;;;;;;;3.67;1.10;;;21.70;95.70;;;;;;5038645;28;20106;-74
2022/08/30 09:11:01;;;;;;;1.75;0.98;;;21.70;96.00;;;;;;5037522;28;20063;-74
2022/08/30 09:13:27;;;;;;;3.95;1.02;;;21.50;95.60;;;;;;5038324;28;20087;-74
2022/08/30 09:15:55;;;;;;;3.70;0.88;;;21.40;96.10;;;;;;5037876;28;20485;-75
2022/08/30 09:18:44;;;;;;;1.60;0.80;;;21.40;95.50;;;;;;5038435;28;20042;-75
2022/08/30 09:21:11;;;;;;;2.75;0.90;;;21.50;95.80;;;;;;5037546;28;20049;-74
2022/08/30 09:23:47;;;;;;;2.40;0.90;;;21.80;96.10;;;;;;5038404;28;20514;-75
2022/08/30 09:26:13;;;;;;;2.58;0.82;;;22.20;95.20;;;;;;5038148;28;20041;-74
2022/08/30 09:28:50;;;;;;;3.42;1.10;;;21.70;95.30;;;;;;5020745;28;20088;-74
2022/08/30 09:31:29;;;;;;;3.53;1.30;;;21.50;95.60;;;;;;5037545;28;20046;-74
2022/08/30 09:34:04;;;;;;;3.22;1.10;;;21.70;95.80;;;;;;5038068;28;20100;-74
2022/08/30 09:36:45;;;;;;;2.35;1.00;;;22.00;95.10;;;;;;5038182;28;20053;-74
2022/08/30 09:39:17;;;;;;;2.38;1.13;;;22.60;94.70;;;;;;5038225;28;20049;-74
2022/08/30 09:41:48;;;;;;;3.35;1.13;;;22.50;95.10;;;;;;5037443;28;20056;-74
2022/08/30 09:44:29;;;;;;;3.30;1.05;;;22.00;94.70;;;;;;5037672;28;20045;-74
2022/08/30 09:46:57;;;;;;;5.15;1.58;;;21.40;95.40;;;;;;5037732;28;20056;-75
2022/08/30 09:49:42;;;;;;;2.72;1.20;;;21.10;95.90;;;;;;5037916;28;20042;-74
2022/08/30 09:52:42;;;;;;;2.80;1.00;;;21.00;95.90;;;;;;5037081;28;20095;-75
2022/08/30 09:55:31;;;;;;;2.75;1.20;;;20.80;96.20;;;;;;5017671;28;20092;-74
2022/08/30 09:58:22;;;;;;;2.97;1.38;;;20.90;96.00;;;;;;5017716;28;20486;-75
2022/08/30 10:01:14;;;;;;;3.17;1.15;;;21.20;96.10;;;;;;5021754;28;20045;-75
2022/08/30 10:04:01;;;;;;;2.22;1.33;;;21.40;95.80;;;;;;5037665;28;20052;-74
2022/08/30 10:06:35;;;;;;;3.25;1.10;;;21.10;95.10;;;;;;5037598;28;20046;-74
2022/08/30 10:09:34;;;;;;;4.07;1.13;;;21.10;95.40;;;;;;5037216;28;20041;-73
2022/08/30 10:12:04;;;;;;;4.07;1.02;;;21.10;95.70;;;;;;5039573;28;20053;-74
2022/08/30 10:14:45;;;;;;;1.95;1.20;;;21.30;95.50;;;;;;5037160;28;20061;-74
2022/08/30 10:17:20;;;;;;;2.83;0.88;;;21.50;95.00;;;;;;5037390;28;20099;-74
2022/08/30 10:19:55;;;;;;;1.33;0.70;;;21.50;95.00;;;;;;5037153;28;20049;-74
2022/08/30 10:22:28;;;;;;;3.63;1.02;;;21.50;94.50;;;;;;5053149;28;20073;-74
2022/08/30 10:25:05;;;;;;;2.58;0.90;;;21.60;94.90;;;;;;5056992;28;20056;-74
2022/08/30 10:28:03;;;;;;;4.60;0.93;;;21.70;94.50;;;;;;5056535;28;20153;-74
2022/08/30 10:30:32;;;;;;;4.28;1.15;;;21.90;95.80;;;;;;5055664;28;20360;-74
2022/08/30 10:33:23;;;;;;;1.80;1.00;;;22.10;94.70;;;;;;5037204;28;20049;-74
2022/08/30 10:35:53;;;;;;;3.15;1.15;;;22.20;93.30;;;;;;5037033;28;20050;-74
2022/08/30 10:38:46;;;;;;;3.47;1.30;;;22.00;93.30;;;;;;5036705;28;20449;-74
2022/08/30 10:41:26;;;;;;;2.30;0.90;;;21.90;93.40;;;;;;5034893;28;20114;-74
2022/08/30 10:44:23;;;;;;;2.55;0.98;;;21.90;93.20;;;;;;5056838;28;20055;-74
2022/08/30 10:47:23;;;;;;;1.83;0.80;;;21.90;93.50;;;;;;5056777;28;20048;-74
2022/08/30 10:49:56;;;;;;;1.67;0.93;;;22.00;94.20;;;;;;5056779;28;20087;-74
2022/08/30 10:52:48;;;;;;;1.88;1.00;;;21.80;93.90;;;;;;5022289;28;20056;-75
2022/08/30 10:55:20;;;;;;;8.27;1.00;;;21.70;93.60;;;;;;5040720;28;20053;-74
2022/08/30 10:57:47;;;;;;;3.47;1.02;;;21.80;93.30;;;;;;5036202;28;20041;-74
2022/08/30 11:00:27;;;;;;;1.95;0.93;;;21.90;92.90;;;;;;5036371;28;20107;-74
2022/08/30 11:03:16;;;;;;;2.40;1.40;;;21.90;93.10;;;;;;5016582;28;20046;-74
2022/08/30 11:05:47;;;;;;;2.75;1.17;;;22.00;92.80;;;;;;4998535;28;20053;-74
2022/08/30 11:08:33;;;;;;;7.55;1.48;;;22.00;92.50;;;;;;5016374;28;20410;-74
2022/08/30 11:11:32;;;;;;;8.77;1.42;;;22.00;92.40;;;;;;5019697;28;20087;-75
2022/08/30 11:14:01;;;;;;;2.30;0.98;;;22.20;93.00;;;;;;5005765;28;20061;-75
2022/08/30 11:16:39;;;;;;;3.53;1.20;;;22.40;92.80;;;;;;5036312;28;20060;-75
2022/08/30 11:19:33;;;;;;;2.78;1.20;;;22.30;92.40;;;;;;5036338;28;20432;-75
2022/08/30 11:22:20;;;;;;;2.78;0.90;;;22.20;92.90;;;;;;5035394;28;20052;-74
2022/08/30 11:25:07;;;;;;;2.80;0.80;;;22.40;93.20;;;;;;5035631;28;20045;-74
2022/08/30 11:27:41;;;;;;;2.28;1.02;;;22.40;92.70;;;;;;5035980;28;20076;-74
2022/08/30 11:30:25;;;;;;;3.00;1.05;;;22.30;92.80;;;;;;5035539;28;20049;-74
2022/08/30 11:33:30;;;;;;;3.13;1.10;;;22.50;92.80;;;;;;5034325;28;20408;-74
2022/08/30 11:35:56;;;;;;;2.20;1.00;;;22.40;92.80;;;;;;5007260;28;20361;-74
2022/08/30 11:38:24;;;;;;;4.13;1.00;;;22.50;92.80;;;;;;5035536;28;20056;-73
2022/08/30 11:41:10;;;;;;;2.55;0.95;;;22.60;93.00;;;;;;5035252;28;20373;-74
2022/08/30 11:43:38;;;;;;;2.15;1.08;;;22.80;92.50;;;;;;5035618;28;20469;-74
2022/08/30 11:46:16;;;;;;;2.10;0.82;;;22.80;92.80;;;;;;5035414;28;20081;-74
2022/08/30 11:48:58;;;;;;;3.08;1.17;;;22.90;92.40;;;;;;5035978;28;20072;-74
2022/08/30 11:51:45;;;;;;;3.35;1.10;;;23.00;92.50;;;;;;5035315;28;20380;-74
2022/08/30 11:54:52;;;;;;;2.55;0.90;;;23.10;92.60;;;;;;5035653;28;20045;-74
2022/08/30 11:57:37;;;;;;;1.70;0.80;;;23.20;92.40;;;;;;5035317;28;20057;-74
2022/08/30 12:00:32;;;;;;;1.98;0.80;;;23.40;91.80;;;;;;5035106;28;20060;-74
2022/08/30 12:03:01;;;;;;;3.33;0.75;;;23.40;91.60;;;;;;5003576;28;20057;-74
2022/08/30 12:05:37;;;;;;;3.10;1.00;;;23.30;92.10;;;;;;5035540;28;20463;-74
2022/08/30 12:08:08;;;;;;;4.57;1.00;;;23.50;92.20;;;;;;5035507;28;20046;-75
2022/08/30 12:10:48;;;;;;;1.73;0.90;;;23.50;92.20;;;;;;5039924;28;20053;-75
2022/08/30 12:13:33;;;;;;;2.50;0.90;;;23.60;91.80;;;;;;5015323;28;20061;-74
2022/08/30 12:16:19;;;;;;;2.90;0.70;;;23.50;92.50;;;;;;5015055;28;20481;-74
2022/08/30 12:18:56;;;;;;;3.65;1.05;;;23.50;92.40;;;;;;5015186;28;20041;-74
2022/08/30 12:21:21;;;;;;;3.08;0.80;;;23.40;92.10;;;;;;5027024;28;20041;-74
2022/08/30 12:24:06;;;;;;;2.15;1.00;;;23.30;92.20;;;;;;5054452;28;20045;-74
2022/08/30 12:26:35;;;;;;;4.15;1.00;;;23.20;92.30;;;;;;5019963;28;20088;-74
2022/08/30 12:29:28;;;;;;;2.33;0.82;;;23.30;92.80;;;;;;5054898;28;20055;-74
2022/08/30 12:32:16;;;;;;;5.00;1.30;;;23.30;92.20;;;;;;5043965;28;20052;-74
2022/08/30 12:34:42;;;;;;;2.22;1.00;;;23.30;92.40;;;;;;5017807;28;20049;-74
2022/08/30 12:37:18;;;;;;;2.17;0.90;;;23.10;92.20;;;;;;5017475;28;20060;-74
2022/08/30 12:39:44;;;;;;;1.42;0.80;;;22.80;92.50;;;;;;5034927;28;20081;-74
2022/08/30 12:42:21;;;;;;;1.83;0.80;;;22.50;92.50;;;;;;5046584;28;20049;-74
2022/08/30 12:44:49;;;;;;;2.28;0.82;;;22.70;92.90;;;;;;5054144;28;20106;-74
2022/08/30 12:47:20;;;;;;;1.17;0.60;;;22.90;92.60;;;;;;5054948;28;20396;-74
2022/08/30 12:49:47;;;;;;;3.67;1.08;;;23.10;92.60;;;;;;5054663;28;20495;-74
2022/08/30 12:52:25;;;;;;;5.40;1.00;;;22.80;92.40;;;;;;5042014;28;20052;-74
2022/08/30 12:55:03;;;;;;;1.52;0.70;;;22.70;92.90;;;;;;5034464;28;20053;-74
2022/08/30 12:57:36;;;;;;;2.22;0.88;;;22.70;93.00;;;;;;5033980;28;20100;-74
2022/08/30 13:00:06;;;;;;;1.50;0.80;;;23.00;93.50;;;;;;5034592;28;20461;-74
2022/08/30 13:02:50;;;;;;;1.70;0.85;;;22.90;93.10;;;;;;5017459;28;20046;-73
2022/08/30 13:05:37;;;;;;;2.90;0.75;;;23.10;92.30;;;;;;5034537;28;20081;-74
2022/08/30 13:08:24;;;;;;;1.80;0.90;;;23.30;93.00;;;;;;5016890;28;20046;-73
2022/08/30 13:11:04;;;;;;;1.85;0.88;;;23.60;92.80;;;;;;5033612;28;20136;-74